This is the latest recevied weather packets stored in our database for station/object OE3AOG-10. If no packets are shown the sender has not sent any weather packets the latest 10 day(s).
| Time | Temp. | Humidity | Pressure | Rain* | Wind** | Luminosity | Snow |
|---|---|---|---|---|---|---|---|
| 1787708501 | 17.78° C | 71% | 1018.3 hPa | - | - | - | - |
| 1787704902 | 18.89° C | 70% | 1018 hPa | - | - | - | - |
| 1787701302 | 18.89° C | 69% | 1018.1 hPa | - | - | - | - |
| 1787697701 | 18.89° C | 68% | 1018.1 hPa | - | - | - | - |
| 1787694101 | 19.44° C | 67% | 1017.9 hPa | - | - | - | - |
| 1787690501 | 20° C | 66% | 1017.6 hPa | - | - | - | - |
| 1787686901 | 20° C | 67% | 1017.3 hPa | - | - | - | - |
| 1787683301 | 20.56° C | 68% | 1016.6 hPa | - | - | - | - |
| 1787679701 | 20.56° C | 67% | 1016 hPa | - | - | - | - |
| 1787676101 | 21.11° C | 64% | 1015.4 hPa | - | - | - | - |
| 1787672500 | 22.22° C | 56% | 1015.2 hPa | - | - | - | - |
| 1787668899 | 22.78° C | 48% | 1014.6 hPa | - | - | - | - |
| 1787665299 | 26.11° C | 38% | 1013.9 hPa | - | - | - | - |
| 1787661700 | 26.11° C | 36% | 1013.5 hPa | - | - | - | - |
| 1787658100 | 27.78° C | 37% | 1013.4 hPa | - | - | - | - |
| 1787654500 | 25° C | 41% | 1013.5 hPa | - | - | - | - |
| 1787650899 | 23.89° C | 46% | 1014.2 hPa | - | - | - | - |
| 1787647299 | 22.22° C | 50% | 1014.5 hPa | - | - | - | - |
| 1787643698 | 21.11° C | 54% | 1014.8 hPa | - | - | - | - |
| 1787640099 | 19.44° C | 59% | 1014.8 hPa | - | - | - | - |
| 1787636499 | 17.22° C | 63% | 1015.4 hPa | - | - | - | - |
| 1787632899 | 15.56° C | 66% | 1015.7 hPa | - | - | - | - |
| 1787629298 | 15° C | 65% | 1015.6 hPa | - | - | - | - |
| 1787625698 | 15.56° C | 63% | 1016.3 hPa | - | - | - | - |
| 1787622098 | 16.11° C | 62% | 1016.7 hPa | - | - | - | - |
* Rain since midnight (hover to see other rain measurements)
** Current wind speed in m/s (hover to see current wind gust speed)